METAR Data
IDs: Format: Raw Decoded Include TAF

Data at: 2107 UTC 24 Mar 2019

KDUX 242055Z AUTO 16003KT 10SM CLR 17/02 A3007 RMK AO2 T01650022
KDUX 242035Z AUTO 00000KT 10SM CLR 16/03 A3007 RMK AO2 T01570030
KDUX 242015Z AUTO 06004KT 10SM CLR 16/03 A3007 RMK AO2 T01550029
KDUX 241955Z AUTO 01003KT 10SM CLR 15/03 A3008 RMK AO2 T01500027
KDUX 241935Z AUTO 00000KT 10SM CLR 14/03 A3009 RMK AO2 T01410027
KDUX 241915Z AUTO 00000KT 10SM CLR 14/02 A3009 RMK AO2 T01410023
KDUX 241855Z AUTO 04005KT 10SM CLR 15/03 A3010 RMK AO2 T01470025
KDUX 241835Z AUTO 07004KT 10SM CLR 14/02 A3011 RMK AO2 T01370023
KDUX 241815Z AUTO 08003KT 10SM CLR 14/03 A3011 RMK AO2 T01390029
KDUX 241755Z AUTO 10004KT 10SM CLR 13/03 A3011 RMK AO2 T01310029 10133 20011
KDUX 241735Z AUTO 03006KT 10SM CLR 13/03 A3011 RMK AO2 T01300031
KDUX 241715Z AUTO 04003KT 10SM CLR 12/03 A3012 RMK AO2 T01180027
KDUX 241655Z AUTO 00000KT 10SM CLR 12/03 A3012 RMK AO2 T01150031
KDUX 241635Z AUTO 36005KT 10SM CLR 11/03 A3011 RMK AO2 T01070033
KDUX 241615Z AUTO 33007KT 10SM CLR 10/04 A3011 RMK AO2 T01010035
KDUX 241555Z AUTO 34008KT 10SM CLR 09/03 A3011 RMK AO2 T00910032
KDUX 241535Z AUTO 33009KT 10SM CLR 09/03 A3011 RMK AO2 T00860030
KDUX 241515Z AUTO 33009KT 10SM CLR 08/03 A3010 RMK AO2 T00770028
KDUX 241455Z AUTO 33009KT 10SM CLR 07/03 A3011 RMK AO2 T00720030
KDUX 241435Z AUTO 32007KT 10SM CLR 06/03 A3011 RMK AO2 T00640028
KDUX 241415Z AUTO 31005KT 10SM CLR 05/02 A3010 RMK AO2 T00500022
KDUX 241355Z AUTO 33008KT 10SM CLR 04/02 A3009 RMK AO2 T00390017
KDUX 241335Z AUTO 32008KT 10SM CLR 03/01 A3008 RMK AO2 T00280009
KDUX 241315Z AUTO 31007KT 10SM CLR 02/00 A3008 RMK AO2 T00190001
KDUX 241255Z AUTO 30006KT 10SM CLR 01/00 A3007 RMK AO2 T00140000
KDUX 241235Z AUTO 31005KT 10SM CLR 01/00 A3007 RMK AO2 T00111001
KDUX 241215Z AUTO 31006KT 10SM CLR 01/00 A3007 RMK AO2 T00130000
KDUX 241155Z AUTO 32007KT 10SM CLR 01/00 A3006 RMK AO2 T00111001 10053 20011
KDUX 241135Z AUTO 32007KT 10SM CLR 01/00 A3006 RMK AO2 T00130000
KDUX 241115Z AUTO 31007KT 10SM CLR 02/00 A3006 RMK AO2 T00160001
KDUX 241055Z AUTO 31005KT 10SM CLR 02/00 A3005 RMK AO2 T00170002
KDUX 241035Z AUTO 31006KT 10SM CLR 02/00 A3005 RMK AO2 T00150001
KDUX 241015Z AUTO 31007KT 10SM CLR 02/00 A3005 RMK AO2 T00200004
KDUX 240955Z AUTO 31006KT 10SM CLR 02/01 A3005 RMK AO2 T00200005
KDUX 240935Z AUTO 31007KT 10SM CLR 02/01 A3005 RMK AO2 T00210006
KDUX 240915Z AUTO 31006KT 10SM CLR 02/01 A3005 RMK AO2 T00220006
KDUX 240855Z AUTO 31006KT 10SM CLR 03/01 A3005 RMK AO2 T00300011
KDUX 240835Z AUTO 32007KT 10SM CLR 03/01 A3004 RMK AO2 T00320012
KDUX 240815Z AUTO 32009KT 10SM CLR 04/02 A3004 RMK AO2 T00350015
KDUX 240755Z AUTO 33010KT 10SM CLR 04/02 A3003 RMK AO2 T00350015
KDUX 240735Z AUTO 33009KT 10SM CLR 04/02 A3002 RMK AO2 T00350018
KDUX 240715Z AUTO 34009KT 10SM CLR 04/02 A3002 RMK AO2 T00360020
KDUX 240655Z AUTO 34010KT 10SM CLR 04/02 A3002 RMK AO2 T00400021
KDUX 240635Z AUTO 35010KT 10SM CLR 05/02 A3001 RMK AO2 T00450022
KDUX 240615Z AUTO 35009KT 10SM CLR 05/03 A3002 RMK AO2 T00470025
KDUX 240555Z AUTO 36009KT 10SM CLR 05/03 A3002 RMK AO2 T00540025 10175 20054 401830007
KDUX 240535Z AUTO 36010KT 10SM CLR 06/03 A3002 RMK AO2 T00600026
KDUX 240515Z AUTO 35013KT 10SM CLR 07/03 A3002 RMK AO2 T00680025
KDUX 240455Z AUTO 32011G16KT 10SM CLR 07/01 A3000 RMK AO2 T00690005
KDUX 240435Z AUTO 00000KT 10SM CLR 06/01 A2998 RMK AO2 T00630009
KDUX 240415Z AUTO 12005KT 10SM CLR 09/01 A2997 RMK AO2 T00850008
KDUX 240355Z AUTO 08004KT 10SM CLR 09/01 A2997 RMK AO2 T00850011
KDUX 240335Z AUTO 08005KT 10SM CLR 08/01 A2996 RMK AO2 T00840011
KDUX 240315Z AUTO 11006KT 10SM CLR 09/01 A2996 RMK AO2 T00920012
KDUX 240255Z AUTO 11008KT 10SM CLR 10/01 A2995 RMK AO2 T00990007
KDUX 240235Z AUTO 08009KT 10SM CLR 10/01 A2995 RMK AO2 T01010005
KDUX 240215Z AUTO 09008KT 10SM CLR 10/00 A2993 RMK AO2 T00950002
KDUX 240155Z AUTO 10006KT 10SM CLR 11/00 A2993 RMK AO2 T01130002
KDUX 240135Z AUTO 08008KT 10SM CLR 11/M01 A2992 RMK AO2 T01091010
KDUX 240115Z AUTO 07005KT 10SM CLR 13/M01 A2992 RMK AO2 T01251013
KDUX 240055Z AUTO 06005KT 10SM CLR 14/00 A2991 RMK AO2 T01361004
KDUX 240035Z AUTO 03003KT 10SM CLR 16/M02 A2991 RMK AO2 T01551021
KDUX 240015Z AUTO 04003KT 10SM CLR 17/M03 A2991 RMK AO2 T01671034
KDUX 232355Z AUTO 00000KT 10SM CLR 18/M05 A2991 RMK AO2 T01751052 10183 20135
KDUX 232335Z AUTO 30004KT 10SM CLR 18/M05 A2991 RMK AO2 T01781046
KDUX 232315Z AUTO 27007KT 10SM CLR 18/M04 A2991 RMK AO2 T01791040
KDUX 232255Z AUTO 26006KT 10SM CLR 18/M03 A2991 RMK AO2 T01821035
KDUX 232235Z AUTO 26003KT 10SM CLR 18/M01 A2991 RMK AO2 T01751013
KDUX 232215Z AUTO 24006KT 10SM CLR 18/M01 A2992 RMK AO2 T01751007
KDUX 232155Z AUTO 25008KT 10SM CLR 17/00 A2992 RMK AO2 T01741004
KDUX 232135Z AUTO 26011G15KT 10SM CLR 17/00 A2993 RMK AO2 T01741002
KDUX 232115Z AUTO 22010KT 10SM CLR 16/M01 A2993 RMK AO2 T01641011
KDUX 232055Z AUTO 21014G19KT 10SM CLR 17/M01 A2993 RMK AO2 T01661006
KDUX 232035Z AUTO 22013G17KT 10SM CLR 16/00 A2995 RMK AO2 T01601005
KDUX 232015Z AUTO 24008G14KT 10SM CLR 16/M01 A2995 RMK AO2 T01601007
KDUX 231955Z AUTO 24012KT 10SM SCT065 16/01 A2995 RMK AO2 T01610005
KDUX 231935Z AUTO 21009KT 10SM CLR 15/M01 A2995 RMK AO2 T01541011
KDUX 231915Z AUTO 21007KT 10SM CLR 15/M01 A2995 RMK AO2 T01521008
KDUX 231855Z AUTO 23005KT 10SM CLR 15/00 A2996 RMK AO2 T01451001
KDUX 231835Z AUTO 22007KT 10SM CLR 14/01 A2996 RMK AO2 T01440007
KDUX 231815Z AUTO 21008KT 10SM CLR 14/01 A2997 RMK AO2 T01390009
KDUX 231755Z AUTO 20005KT 10SM CLR 13/00 A2997 RMK AO2 T01340003 10134 20007
KDUX 231735Z AUTO 13005KT 10SM CLR 13/02 A2998 RMK AO2 T01270022
KDUX 231715Z AUTO 00000KT 10SM CLR 12/02 A2998 RMK AO2 T01190023
KDUX 231655Z AUTO 16003KT 10SM CLR 11/03 A2998 RMK AO2 T01120030
KDUX 231635Z AUTO 00000KT 10SM CLR 10/03 A2999 RMK AO2 T01040031
KDUX 231615Z AUTO 02003KT 10SM CLR 10/04 A3000 RMK AO2 T00980037
KDUX 231555Z AUTO 30004KT 10SM CLR 09/04 A3000 RMK AO2 T00920040
KDUX 231535Z AUTO 32008KT 10SM CLR 09/04 A3000 RMK AO2 T00880041
KDUX 231515Z AUTO 31007KT 10SM CLR 08/04 A3000 RMK AO2 T00800038
KDUX 231455Z AUTO 32007KT 10SM CLR 07/04 A3000 RMK AO2 T00720039
KDUX 231435Z AUTO 30005KT 10SM CLR 05/04 A3000 RMK AO2 T00540036
KDUX 231415Z AUTO 30005KT 10SM CLR 04/03 A2998 RMK AO2 T00420025
KDUX 231355Z AUTO 30006KT 10SM CLR 03/01 A2998 RMK AO2 T00300011
KDUX 231335Z AUTO 29007KT 10SM CLR 02/01 A2998 RMK AO2 T00200005
KDUX 231315Z AUTO 28006KT 10SM CLR 01/00 A2997 RMK AO2 T00130000
KDUX 231255Z AUTO 28008KT 10SM CLR 01/00 A2997 RMK AO2 T00100004
KDUX 231235Z AUTO 26005KT 5SM BR CLR 01/00 A2996 RMK AO2 T00080003
KDUX 231215Z AUTO 28004KT 5SM BR CLR 01/01 A2996 RMK AO2 T00120007
KDUX 231155Z AUTO 28007KT 7SM CLR 02/01 A2996 RMK AO2 70025 T00200014 10041 20015
KDUX 231135Z AUTO 27009KT 7SM CLR 02/01 A2995 RMK AO2 T00170012
KDUX 231115Z AUTO 27009KT 10SM CLR 02/02 A2995 RMK AO2 T00210015
KDUX 231055Z AUTO 23009KT 10SM CLR 03/02 A2993 RMK AO2 T00260021
KDUX 231035Z AUTO 23008KT 10SM CLR 03/02 A2993 RMK AO2 T00300023
KDUX 231015Z AUTO 23010KT 5SM BR CLR 03/03 A2992 RMK AO2 T00320027
KDUX 230955Z AUTO 24008KT 5SM BR CLR 04/03 A2992 RMK AO2 T00380033
KDUX 230935Z AUTO 23008KT 5SM BR CLR 04/03 A2991 RMK AO2 T00380033
KDUX 230915Z AUTO 22009KT 7SM CLR 04/03 A2991 RMK AO2 T00400034